<?xml version="1.0" encoding="UTF-8" standalone="no" ?>
<gpx xmlns="http://www.topografix.com/GPX/1/1" xmlns:xsi="http://www.w3.org/2001/XMLSchema-instance" xsi:schemaLocation="http://www.topografix.com/GPX/1/1 http://www.topografix.com/GPX/1/1/gpx.xsd" version="1.1" creator="VisuGPX - https://www.visugpx.com">
  <metadata>
    <name>Saint Waast la Vallée</name>
    <desc><![CDATA[Agréable marche malgré la pluie et le vent]]></desc>
  </metadata>
  <trk>
    <name><![CDATA[STWAAST5 06:27:49 PM]]></name>
    <trkseg>
      <trkpt lat="50.30459" lon="3.7496">
        <ele>137.61</ele>
        <time>2015-01-29T13:10:31Z</time>
      </trkpt>
      <trkpt lat="50.30464" lon="3.75147">
        <ele>89.54</ele>
        <time>2015-01-29T13:18:48Z</time>
      </trkpt>
      <trkpt lat="50.30561" lon="3.75091">
        <ele>90.98</ele>
        <time>2015-01-29T13:20:18Z</time>
      </trkpt>
      <trkpt lat="50.30657" lon="3.74999">
        <ele>84.73</ele>
        <time>2015-01-29T13:22:07Z</time>
      </trkpt>
      <trkpt lat="50.30768" lon="3.74934">
        <ele>86.66</ele>
        <time>2015-01-29T13:23:46Z</time>
      </trkpt>
      <trkpt lat="50.3088" lon="3.74906">
        <ele>84.73</ele>
        <time>2015-01-29T13:25:21Z</time>
      </trkpt>
      <trkpt lat="50.30993" lon="3.74914">
        <ele>86.18</ele>
        <time>2015-01-29T13:26:58Z</time>
      </trkpt>
      <trkpt lat="50.31111" lon="3.74915">
        <ele>87.62</ele>
        <time>2015-01-29T13:28:37Z</time>
      </trkpt>
      <trkpt lat="50.31239" lon="3.74904">
        <ele>85.69</ele>
        <time>2015-01-29T13:31:04Z</time>
      </trkpt>
      <trkpt lat="50.31331" lon="3.74852">
        <ele>82.81</ele>
        <time>2015-01-29T13:32:27Z</time>
      </trkpt>
      <trkpt lat="50.31255" lon="3.7472">
        <ele>82.81</ele>
        <time>2015-01-29T13:34:44Z</time>
      </trkpt>
      <trkpt lat="50.31184" lon="3.74605">
        <ele>92.42</ele>
        <time>2015-01-29T13:36:27Z</time>
      </trkpt>
      <trkpt lat="50.31161" lon="3.7445">
        <ele>95.79</ele>
        <time>2015-01-29T13:38:08Z</time>
      </trkpt>
      <trkpt lat="50.31143" lon="3.74329">
        <ele>106.36</ele>
        <time>2015-01-29T13:41:21Z</time>
      </trkpt>
      <trkpt lat="50.31234" lon="3.74267">
        <ele>107.81</ele>
        <time>2015-01-29T13:44:29Z</time>
      </trkpt>
      <trkpt lat="50.31318" lon="3.74201">
        <ele>107.81</ele>
        <time>2015-01-29T13:48:16Z</time>
      </trkpt>
      <trkpt lat="50.31398" lon="3.74125">
        <ele>106.36</ele>
        <time>2015-01-29T13:49:43Z</time>
      </trkpt>
      <trkpt lat="50.31476" lon="3.74032">
        <ele>107.32</ele>
        <time>2015-01-29T13:51:05Z</time>
      </trkpt>
      <trkpt lat="50.3154" lon="3.73918">
        <ele>111.17</ele>
        <time>2015-01-29T13:52:29Z</time>
      </trkpt>
      <trkpt lat="50.31587" lon="3.73803">
        <ele>114.53</ele>
        <time>2015-01-29T13:54:05Z</time>
      </trkpt>
      <trkpt lat="50.31571" lon="3.73658">
        <ele>116.46</ele>
        <time>2015-01-29T13:55:27Z</time>
      </trkpt>
      <trkpt lat="50.3149" lon="3.73625">
        <ele>119.82</ele>
        <time>2015-01-29T13:56:46Z</time>
      </trkpt>
      <trkpt lat="50.31415" lon="3.73565">
        <ele>120.3</ele>
        <time>2015-01-29T13:58:03Z</time>
      </trkpt>
      <trkpt lat="50.31333" lon="3.73508">
        <ele>120.78</ele>
        <time>2015-01-29T13:59:21Z</time>
      </trkpt>
      <trkpt lat="50.31255" lon="3.73443">
        <ele>115.01</ele>
        <time>2015-01-29T14:00:36Z</time>
      </trkpt>
      <trkpt lat="50.31211" lon="3.73314">
        <ele>111.65</ele>
        <time>2015-01-29T14:01:56Z</time>
      </trkpt>
      <trkpt lat="50.31148" lon="3.73187">
        <ele>112.13</ele>
        <time>2015-01-29T14:03:25Z</time>
      </trkpt>
      <trkpt lat="50.31078" lon="3.73105">
        <ele>117.42</ele>
        <time>2015-01-29T14:04:39Z</time>
      </trkpt>
      <trkpt lat="50.30996" lon="3.73042">
        <ele>116.46</ele>
        <time>2015-01-29T14:05:59Z</time>
      </trkpt>
      <trkpt lat="50.30908" lon="3.73014">
        <ele>119.34</ele>
        <time>2015-01-29T14:07:13Z</time>
      </trkpt>
      <trkpt lat="50.30874" lon="3.73147">
        <ele>115.5</ele>
        <time>2015-01-29T14:08:30Z</time>
      </trkpt>
      <trkpt lat="50.30845" lon="3.73281">
        <ele>116.46</ele>
        <time>2015-01-29T14:10:01Z</time>
      </trkpt>
      <trkpt lat="50.30814" lon="3.73418">
        <ele>114.05</ele>
        <time>2015-01-29T14:11:20Z</time>
      </trkpt>
      <trkpt lat="50.30779" lon="3.73547">
        <ele>115.5</ele>
        <time>2015-01-29T14:12:36Z</time>
      </trkpt>
      <trkpt lat="50.30745" lon="3.73678">
        <ele>117.9</ele>
        <time>2015-01-29T14:13:54Z</time>
      </trkpt>
      <trkpt lat="50.30724" lon="3.73825">
        <ele>109.73</ele>
        <time>2015-01-29T14:15:18Z</time>
      </trkpt>
      <trkpt lat="50.30656" lon="3.73983">
        <ele>131.84</ele>
        <time>2015-01-29T14:16:52Z</time>
      </trkpt>
      <trkpt lat="50.30629" lon="3.74121">
        <ele>114.53</ele>
        <time>2015-01-29T14:18:11Z</time>
      </trkpt>
      <trkpt lat="50.30605" lon="3.74264">
        <ele>111.17</ele>
        <time>2015-01-29T14:19:26Z</time>
      </trkpt>
      <trkpt lat="50.30544" lon="3.74323">
        <ele>115.01</ele>
        <time>2015-01-29T14:20:46Z</time>
      </trkpt>
      <trkpt lat="50.30458" lon="3.74352">
        <ele>122.71</ele>
        <time>2015-01-29T14:22:08Z</time>
      </trkpt>
      <trkpt lat="50.30448" lon="3.74465">
        <ele>107.81</ele>
        <time>2015-01-29T14:23:56Z</time>
      </trkpt>
      <trkpt lat="50.30456" lon="3.74603">
        <ele>98.19</ele>
        <time>2015-01-29T14:25:19Z</time>
      </trkpt>
      <trkpt lat="50.3043" lon="3.74715">
        <ele>96.27</ele>
        <time>2015-01-29T14:27:19Z</time>
      </trkpt>
      <trkpt lat="50.30335" lon="3.74716">
        <ele>103</ele>
        <time>2015-01-29T14:28:52Z</time>
      </trkpt>
      <trkpt lat="50.30248" lon="3.74658">
        <ele>99.63</ele>
        <time>2015-01-29T14:30:15Z</time>
      </trkpt>
      <trkpt lat="50.30156" lon="3.74556">
        <ele>92.42</ele>
        <time>2015-01-29T14:32:01Z</time>
      </trkpt>
      <trkpt lat="50.30041" lon="3.7448">
        <ele>92.9</ele>
        <time>2015-01-29T14:33:53Z</time>
      </trkpt>
      <trkpt lat="50.29927" lon="3.74432">
        <ele>103.48</ele>
        <time>2015-01-29T14:35:59Z</time>
      </trkpt>
      <trkpt lat="50.29833" lon="3.74359">
        <ele>107.32</ele>
        <time>2015-01-29T14:39:26Z</time>
      </trkpt>
      <trkpt lat="50.29732" lon="3.7434">
        <ele>105.88</ele>
        <time>2015-01-29T14:40:58Z</time>
      </trkpt>
      <trkpt lat="50.29636" lon="3.74357">
        <ele>113.57</ele>
        <time>2015-01-29T14:42:29Z</time>
      </trkpt>
      <trkpt lat="50.29599" lon="3.74445">
        <ele>113.57</ele>
        <time>2015-01-29T14:44:04Z</time>
      </trkpt>
      <trkpt lat="50.29638" lon="3.74571">
        <ele>115.5</ele>
        <time>2015-01-29T14:46:16Z</time>
      </trkpt>
      <trkpt lat="50.29651" lon="3.74714">
        <ele>120.3</ele>
        <time>2015-01-29T14:47:39Z</time>
      </trkpt>
      <trkpt lat="50.29653" lon="3.74861">
        <ele>120.78</ele>
        <time>2015-01-29T14:49:03Z</time>
      </trkpt>
      <trkpt lat="50.29635" lon="3.74996">
        <ele>118.38</ele>
        <time>2015-01-29T14:50:25Z</time>
      </trkpt>
      <trkpt lat="50.29605" lon="3.7513">
        <ele>114.53</ele>
        <time>2015-01-29T14:51:44Z</time>
      </trkpt>
      <trkpt lat="50.29566" lon="3.75251">
        <ele>118.38</ele>
        <time>2015-01-29T14:54:41Z</time>
      </trkpt>
      <trkpt lat="50.29514" lon="3.75391">
        <ele>115.5</ele>
        <time>2015-01-29T14:56:40Z</time>
      </trkpt>
      <trkpt lat="50.29453" lon="3.75432">
        <ele>122.71</ele>
        <time>2015-01-29T14:58:35Z</time>
      </trkpt>
      <trkpt lat="50.29389" lon="3.75327">
        <ele>125.59</ele>
        <time>2015-01-29T14:59:52Z</time>
      </trkpt>
      <trkpt lat="50.29323" lon="3.75235">
        <ele>126.07</ele>
        <time>2015-01-29T15:01:18Z</time>
      </trkpt>
      <trkpt lat="50.29243" lon="3.75292">
        <ele>130.88</ele>
        <time>2015-01-29T15:02:37Z</time>
      </trkpt>
      <trkpt lat="50.2916" lon="3.75308">
        <ele>129.43</ele>
        <time>2015-01-29T15:04:04Z</time>
      </trkpt>
      <trkpt lat="50.29074" lon="3.75336">
        <ele>131.84</ele>
        <time>2015-01-29T15:05:19Z</time>
      </trkpt>
      <trkpt lat="50.28989" lon="3.75372">
        <ele>131.84</ele>
        <time>2015-01-29T15:06:35Z</time>
      </trkpt>
      <trkpt lat="50.28905" lon="3.75413">
        <ele>132.8</ele>
        <time>2015-01-29T15:08:22Z</time>
      </trkpt>
      <trkpt lat="50.28835" lon="3.75494">
        <ele>133.76</ele>
        <time>2015-01-29T15:09:49Z</time>
      </trkpt>
      <trkpt lat="50.2881" lon="3.75599">
        <ele>135.2</ele>
        <time>2015-01-29T15:11:19Z</time>
      </trkpt>
      <trkpt lat="50.28894" lon="3.75657">
        <ele>135.2</ele>
        <time>2015-01-29T15:12:34Z</time>
      </trkpt>
      <trkpt lat="50.28976" lon="3.75708">
        <ele>133.76</ele>
        <time>2015-01-29T15:13:51Z</time>
      </trkpt>
      <trkpt lat="50.29055" lon="3.75777">
        <ele>132.32</ele>
        <time>2015-01-29T15:15:04Z</time>
      </trkpt>
      <trkpt lat="50.29128" lon="3.75852">
        <ele>130.4</ele>
        <time>2015-01-29T15:16:20Z</time>
      </trkpt>
      <trkpt lat="50.29207" lon="3.75913">
        <ele>126.55</ele>
        <time>2015-01-29T15:17:36Z</time>
      </trkpt>
      <trkpt lat="50.29289" lon="3.75943">
        <ele>122.71</ele>
        <time>2015-01-29T15:18:44Z</time>
      </trkpt>
      <trkpt lat="50.29379" lon="3.76004">
        <ele>112.61</ele>
        <time>2015-01-29T15:20:07Z</time>
      </trkpt>
      <trkpt lat="50.29475" lon="3.76021">
        <ele>106.84</ele>
        <time>2015-01-29T15:21:27Z</time>
      </trkpt>
      <trkpt lat="50.29569" lon="3.76001">
        <ele>106.36</ele>
        <time>2015-01-29T15:24:11Z</time>
      </trkpt>
      <trkpt lat="50.29655" lon="3.76011">
        <ele>97.71</ele>
        <time>2015-01-29T15:28:40Z</time>
      </trkpt>
      <trkpt lat="50.29694" lon="3.76129">
        <ele>103.96</ele>
        <time>2015-01-29T15:30:10Z</time>
      </trkpt>
      <trkpt lat="50.2976" lon="3.76181">
        <ele>102.52</ele>
        <time>2015-01-29T15:31:46Z</time>
      </trkpt>
      <trkpt lat="50.29842" lon="3.76083">
        <ele>103</ele>
        <time>2015-01-29T15:33:13Z</time>
      </trkpt>
      <trkpt lat="50.29924" lon="3.75998">
        <ele>103</ele>
        <time>2015-01-29T15:34:42Z</time>
      </trkpt>
      <trkpt lat="50.29924" lon="3.7587">
        <ele>95.79</ele>
        <time>2015-01-29T15:36:05Z</time>
      </trkpt>
      <trkpt lat="50.29981" lon="3.75754">
        <ele>102.04</ele>
        <time>2015-01-29T15:37:46Z</time>
      </trkpt>
      <trkpt lat="50.30046" lon="3.75648">
        <ele>107.81</ele>
        <time>2015-01-29T15:39:04Z</time>
      </trkpt>
      <trkpt lat="50.30107" lon="3.75544">
        <ele>105.4</ele>
        <time>2015-01-29T15:40:19Z</time>
      </trkpt>
      <trkpt lat="50.30179" lon="3.75441">
        <ele>98.67</ele>
        <time>2015-01-29T15:41:42Z</time>
      </trkpt>
      <trkpt lat="50.30267" lon="3.75376">
        <ele>101.56</ele>
        <time>2015-01-29T15:43:04Z</time>
      </trkpt>
      <trkpt lat="50.30352" lon="3.7529">
        <ele>94.83</ele>
        <time>2015-01-29T15:44:40Z</time>
      </trkpt>
      <trkpt lat="50.30405" lon="3.75184">
        <ele>89.54</ele>
        <time>2015-01-29T15:46:05Z</time>
      </trkpt>
      <trkpt lat="50.30409" lon="3.75081">
        <ele>87.14</ele>
        <time>2015-01-29T15:47:35Z</time>
      </trkpt>
    </trkseg>
  </trk>
</gpx>